Time;durP1;ratioP1;P1;durP2;ratioP2;P2;SDS_P1;SDS_P2;PMS_P1;PMS_P2;Temp;Humidity;BMP_temperature;BMP_pressure;BME280_temperature;BME280_humidity;BME280_pressure;Samples;Min_cycle;Max_cycle;Signal;HPM_P1;HPM_P2
2022/08/24 00:01:46;;;;;;;12.25;9.32;;;;;;;19.43;78.24;94417.44;4172245;28;20055;-66
2022/08/24 00:03:56;;;;;;;10.48;9.43;;;;;;;19.33;79.05;94417.94;4175024;28;20416;-67
2022/08/24 00:06:09;;;;;;;11.45;9.60;;;;;;;19.17;79.81;94416.69;4177001;28;20052;-66
2022/08/24 00:08:12;;;;;;;13.13;9.55;;;;;;;19.19;80.37;94413.81;4162201;28;20107;-65
2022/08/24 00:10:29;;;;;;;10.98;9.90;;;;;;;19.22;80.48;94426.66;4160069;28;20080;-67
2022/08/24 00:12:38;;;;;;;14.20;10.68;;;;;;;18.79;81.99;94430.09;4172218;28;20483;-68
2022/08/24 00:14:44;;;;;;;11.20;9.70;;;;;;;18.68;82.71;94428.91;4175694;28;20049;-66
2022/08/24 00:17:09;;;;;;;12.55;10.50;;;;;;;18.41;84.58;94431.75;4158267;28;20057;-67
2022/08/24 00:19:23;;;;;;;23.90;16.33;;;;;;;18.37;84.73;94435.88;4175414;28;20566;-69
2022/08/24 00:21:25;;;;;;;26.02;18.88;;;;;;;18.17;85.59;94437.81;4176254;28;20106;-67
2022/08/24 00:23:28;;;;;;;28.45;19.90;;;;;;;18.26;85.26;94443.66;4175692;28;20111;-67
2022/08/24 00:25:39;;;;;;;27.17;22.17;;;;;;;18.21;84.83;94445.09;4176028;28;20546;-66
2022/08/24 00:27:42;;;;;;;26.17;22.30;;;;;;;18.09;85.57;94446.00;4175772;28;20362;-66
2022/08/24 00:29:44;;;;;;;32.80;23.17;;;;;;;18.03;86.04;94446.88;4174076;28;20089;-65
2022/08/24 00:31:56;;;;;;;27.88;22.98;;;;;;;18.00;86.40;94454.22;4165032;28;20152;-68
2022/08/24 00:34:07;;;;;;;23.90;19.17;;;;;;;18.16;86.47;94452.91;4159373;28;20063;-67
2022/08/24 00:36:13;;;;;;;24.35;19.05;;;;;;;18.35;86.39;94458.31;4176098;28;20448;-66
2022/08/24 00:38:16;;;;;;;22.27;18.05;;;;;;;18.50;85.52;94450.88;4175198;28;20146;-67
2022/08/24 00:40:42;;;;;;;21.90;18.70;;;;;;;18.31;85.55;94452.63;4175965;28;20130;-66
2022/08/24 00:42:44;;;;;;;22.90;17.40;;;;;;;18.36;85.83;94450.13;4171772;28;20051;-68
2022/08/24 00:44:46;;;;;;;25.30;18.23;;;;;;;18.39;85.96;94446.22;4171250;28;20483;-67
2022/08/24 00:47:01;;;;;;;23.10;18.17;;;;;;;18.33;86.09;94455.88;4167236;28;20368;-68
2022/08/24 00:49:11;;;;;;;25.10;18.15;;;;;;;18.29;87.14;94457.31;4172808;28;20487;-66
2022/08/24 00:51:19;;;;;;;23.80;18.48;;;;;;;18.34;87.19;94448.72;4146613;28;20100;-67
2022/08/24 00:53:28;;;;;;;26.95;20.67;;;;;;;18.23;87.21;94449.41;4160542;28;20231;-67
2022/08/24 00:55:45;;;;;;;27.60;21.60;;;;;;;18.27;87.80;94454.06;4162393;28;20049;-67
2022/08/24 00:57:52;;;;;;;28.33;20.48;;;;;;;18.33;87.22;94458.53;4162025;28;20076;-66
2022/08/24 01:00:18;;;;;;;31.42;23.60;;;;;;;18.10;88.06;94460.88;4149140;28;20736;-68
2022/08/24 01:02:28;;;;;;;30.42;22.33;;;;;;;18.14;88.63;94457.59;4166038;28;20058;-68
2022/08/24 01:04:35;;;;;;;25.73;20.83;;;;;;;18.17;88.80;94462.47;4151141;28;20060;-66
2022/08/24 01:06:52;;;;;;;27.63;21.50;;;;;;;18.19;88.62;94463.06;4141333;28;20061;-68
2022/08/24 01:08:57;;;;;;;28.15;22.65;;;;;;;18.32;88.38;94464.84;4161364;28;20057;-66
2022/08/24 01:11:07;;;;;;;30.80;22.80;;;;;;;18.41;87.31;94462.75;4175259;28;20587;-67
2022/08/24 01:13:10;;;;;;;32.30;23.63;;;;;;;18.40;87.00;94469.09;4157671;28;20053;-67
2022/08/24 01:15:14;;;;;;;33.13;23.17;;;;;;;18.41;87.26;94471.53;4156300;28;20049;-66
2022/08/24 01:19:44;;;;;;;30.80;21.30;;;;;;;18.62;87.20;94464.25;4174951;28;20464;-68
2022/08/24 01:21:53;;;;;;;29.98;22.65;;;;;;;18.69;85.88;94474.81;4158032;28;20140;-66
2022/08/24 01:24:00;;;;;;;30.90;22.90;;;;;;;18.78;85.28;94474.38;4162207;28;20463;-68
2022/08/24 01:26:02;;;;;;;30.65;22.77;;;;;;;18.88;84.74;94479.19;4140597;28;20053;-68
2022/08/24 01:28:09;;;;;;;29.83;23.33;;;;;;;18.95;84.25;94477.31;4171287;28;20128;-66
2022/08/24 01:30:13;;;;;;;29.48;23.67;;;;;;;19.00;83.53;94479.34;4140972;28;20137;-67
2022/08/24 01:32:21;;;;;;;28.35;21.67;;;;;;;19.09;83.36;94480.69;4154518;28;20053;-66
2022/08/24 01:34:24;;;;;;;26.17;21.15;;;;;;;19.14;82.82;94483.47;4152678;28;20461;-67
2022/08/24 01:36:35;;;;;;;29.40;21.77;;;;;;;19.17;82.53;94483.06;4174919;28;20053;-68
2022/08/24 01:38:38;;;;;;;30.17;21.90;;;;;;;19.24;82.37;94486.47;4181829;28;20059;-69
2022/08/24 01:40:48;;;;;;;28.33;22.48;;;;;;;19.29;82.00;94491.13;4154757;28;20099;-69
2022/08/24 01:42:51;;;;;;;30.83;22.13;;;;;;;19.28;81.54;94491.34;4148524;28;20080;-68
2022/08/24 01:44:53;;;;;;;34.05;23.23;;;;;;;19.29;81.15;94495.63;4148807;28;20053;-69
2022/08/24 01:46:55;;;;;;;29.60;22.05;;;;;;;19.30;81.34;94492.75;4171204;28;20141;-70
2022/08/24 01:48:58;;;;;;;34.67;24.35;;;;;;;19.30;81.07;94491.97;4166490;28;20053;-68
2022/08/24 01:51:00;;;;;;;30.42;22.27;;;;;;;19.32;81.14;94479.28;4159849;28;20056;-69
2022/08/24 01:53:04;;;;;;;34.17;23.48;;;;;;;19.32;81.07;94472.09;4171931;28;20455;-68
2022/08/24 01:55:25;;;;;;;33.90;23.73;;;;;;;19.31;81.20;94480.28;4172651;28;20475;-67
2022/08/24 01:57:28;;;;;;;33.05;22.70;;;;;;;19.28;80.99;94478.09;4173430;28;20449;-69
2022/08/24 01:59:30;;;;;;;28.65;21.55;;;;;;;19.28;81.28;94478.88;4161620;28;20113;-68
2022/08/24 02:01:36;;;;;;;35.30;22.88;;;;;;;19.34;81.30;94479.88;4166433;28;20654;-65
2022/08/24 02:03:38;;;;;;;31.42;22.83;;;;;;;19.36;81.03;94480.44;4173281;28;20449;-68
2022/08/24 02:05:40;;;;;;;32.17;21.92;;;;;;;19.33;80.95;94487.00;4172814;28;20049;-68
2022/08/24 02:07:43;;;;;;;37.13;22.88;;;;;;;19.30;81.34;94497.28;4172135;28;20059;-68
2022/08/24 02:09:45;;;;;;;33.33;23.23;;;;;;;19.28;81.25;94492.16;4173973;28;20076;-67
2022/08/24 02:11:48;;;;;;;35.57;24.50;;;;;;;19.19;81.40;94501.44;4154561;28;20052;-67
2022/08/24 02:13:50;;;;;;;33.17;22.95;;;;;;;19.21;81.76;94499.38;4155026;28;20133;-67
2022/08/24 02:15:52;;;;;;;31.70;22.08;;;;;;;19.19;81.40;94502.25;4145697;28;20648;-68
2022/08/24 02:17:55;;;;;;;29.80;22.58;;;;;;;19.16;81.58;94504.50;4171711;28;20067;-69
2022/08/24 02:19:57;;;;;;;31.25;21.88;;;;;;;19.17;81.68;94509.63;4171457;28;20060;-67
2022/08/24 02:21:59;;;;;;;31.13;22.17;;;;;;;19.21;81.75;94505.50;4162969;28;20049;-69
2022/08/24 02:24:02;;;;;;;33.08;24.35;;;;;;;19.29;81.75;94509.72;4155747;28;20127;-70
2022/08/24 02:26:04;;;;;;;30.92;22.23;;;;;;;19.29;81.17;94511.56;4174351;28;20401;-67
2022/08/24 02:28:06;;;;;;;30.33;21.67;;;;;;;19.29;80.82;94507.06;4160872;28;20717;-68
2022/08/24 02:30:08;;;;;;;27.58;21.52;;;;;;;19.29;80.62;94517.69;4173865;28;20048;-67
2022/08/24 02:32:11;;;;;;;28.50;21.65;;;;;;;19.33;80.56;94518.88;4172464;28;20052;-67
2022/08/24 02:34:13;;;;;;;31.33;21.27;;;;;;;19.35;80.34;94513.34;4174228;28;20124;-67
2022/08/24 02:36:15;;;;;;;27.65;20.15;;;;;;;19.40;80.08;94514.34;4171489;28;20061;-67
2022/08/24 02:38:27;;;;;;;31.17;20.95;;;;;;;19.40;80.14;94518.81;4171747;28;20080;-67
2022/08/24 02:40:30;;;;;;;26.33;20.35;;;;;;;19.43;79.97;94518.38;4170986;28;20053;-68
2022/08/24 02:42:31;;;;;;;28.63;21.38;;;;;;;19.44;79.92;94520.84;4173210;28;20063;-68
2022/08/24 02:44:33;;;;;;;27.20;21.05;;;;;;;19.46;79.75;94517.94;4168988;28;20053;-68
2022/08/24 02:46:36;;;;;;;25.98;20.45;;;;;;;19.50;79.81;94518.34;4160419;28;20578;-68
2022/08/24 02:48:37;;;;;;;26.98;20.08;;;;;;;19.50;79.60;94519.13;4161303;28;20139;-68
2022/08/24 02:50:42;;;;;;;26.35;20.38;;;;;;;19.55;79.85;94521.97;4172401;28;20053;-66
2022/08/24 02:52:45;;;;;;;24.48;19.45;;;;;;;19.55;79.62;94519.31;4174609;28;20053;-67
2022/08/24 02:54:47;;;;;;;26.60;19.88;;;;;;;19.55;79.55;94527.28;4176659;28;20060;-68
2022/08/24 02:56:49;;;;;;;25.83;19.70;;;;;;;19.52;79.63;94526.91;4176200;28;20460;-68
2022/08/24 02:58:51;;;;;;;25.02;19.08;;;;;;;19.55;79.79;94529.09;4158363;28;20053;-66
2022/08/24 03:00:55;;;;;;;26.10;20.52;;;;;;;19.54;79.46;94522.97;4175382;28;20154;-66
2022/08/24 03:02:57;;;;;;;25.27;19.23;;;;;;;19.54;79.51;94525.63;4167548;28;20049;-66
2022/08/24 03:05:00;;;;;;;26.50;19.90;;;;;;;19.55;79.61;94523.78;4176304;28;20060;-67
2022/08/24 03:07:02;;;;;;;26.80;19.17;;;;;;;19.54;79.55;94524.84;4176128;28;20155;-68
2022/08/24 03:09:04;;;;;;;27.70;18.40;;;;;;;19.55;79.85;94521.97;4164161;28;20049;-67
2022/08/24 03:11:07;;;;;;;25.65;18.27;;;;;;;19.62;82.60;94527.22;4162528;28;20056;-67
2022/08/24 03:13:09;;;;;;;29.88;20.77;;;;;;;19.50;81.16;94523.66;4167084;28;20049;-69
2022/08/24 03:15:11;;;;;;;26.30;20.15;;;;;;;19.62;86.16;94530.69;4170033;28;20053;-68
2022/08/24 03:17:13;;;;;;;26.73;20.67;;;;;;;19.73;87.47;94520.41;4163319;28;20057;-68
2022/08/24 03:19:19;;;;;;;26.52;19.60;;;;;;;19.88;88.98;94530.66;4176047;28;20544;-69
2022/08/24 03:21:21;;;;;;;27.88;19.95;;;;;;;19.98;87.98;94530.94;4173676;28;20084;-67
2022/08/24 03:23:23;;;;;;;28.65;20.08;;;;;;;20.04;88.08;94530.88;4161045;28;20049;-67
2022/08/24 03:25:26;;;;;;;29.65;21.63;;;;;;;20.09;88.06;94527.56;4171510;28;20068;-66
2022/08/24 03:27:29;;;;;;;26.98;20.63;;;;;;;20.13;88.48;94528.72;4176035;28;20363;-67
2022/08/24 03:29:33;;;;;;;;;;;;;;;20.16;88.04;94530.97;4174403;28;20056;-68
2022/08/24 03:31:36;;;;;;;31.40;19.67;;;;;;;20.21;88.30;94533.75;4176590;28;19925;-68
2022/08/24 03:33:38;;;;;;;29.60;20.98;;;;;;;20.16;87.13;94538.13;4176245;28;20056;-67
2022/08/24 03:35:40;;;;;;;26.23;20.38;;;;;;;20.21;88.35;94536.41;4176347;28;20049;-68
2022/08/24 03:37:42;;;;;;;26.17;19.70;;;;;;;20.25;88.11;94534.94;4174717;28;20207;-67
2022/08/24 03:39:46;;;;;;;28.42;21.25;;;;;;;20.27;87.55;94528.59;4157426;28;20305;-68
2022/08/24 03:41:48;;;;;;;27.70;20.02;;;;;;;20.32;87.08;94540.16;4172987;28;20057;-66
2022/08/24 03:43:50;;;;;;;23.38;18.75;;;;;;;20.34;86.96;94537.28;4174665;28;20136;-68
2022/08/24 03:45:52;;;;;;;22.85;18.00;;;;;;;20.33;86.75;94539.16;4153996;28;20053;-66
2022/08/24 03:47:55;;;;;;;21.50;16.92;;;;;;;20.28;85.38;94536.31;4167833;28;20058;-67
2022/08/24 03:49:57;;;;;;;25.65;17.33;;;;;;;20.25;85.10;94542.09;4176323;28;20053;-69
2022/08/24 03:51:59;;;;;;;23.95;17.98;;;;;;;20.31;85.68;94543.88;4173520;28;20057;-68
2022/08/24 03:54:02;;;;;;;24.60;18.10;;;;;;;20.35;84.86;94542.41;4175432;28;20052;-69
2022/08/24 03:56:05;;;;;;;25.70;17.80;;;;;;;20.32;83.75;94539.38;4175047;28;20318;-68
2022/08/24 03:58:08;;;;;;;24.95;17.38;;;;;;;20.27;81.21;94544.56;4175977;28;20111;-68
2022/08/24 04:00:11;;;;;;;19.70;16.35;;;;;;;20.24;80.93;94533.31;4174341;28;20325;-66
2022/08/24 04:02:13;;;;;;;25.20;18.88;;;;;;;20.21;79.19;94540.94;4175323;28;20492;-67
2022/08/24 04:04:16;;;;;;;22.38;18.17;;;;;;;20.15;78.75;94539.16;4175415;28;20457;-67
2022/08/24 04:06:19;;;;;;;21.67;17.52;;;;;;;20.11;78.49;94537.97;4176134;28;20103;-66
2022/08/24 04:08:21;;;;;;;21.77;18.58;;;;;;;20.04;78.05;94538.03;4147973;28;20515;-66
2022/08/24 04:10:23;;;;;;;20.75;16.63;;;;;;;19.99;78.11;94532.59;4172688;28;20455;-66
2022/08/24 04:12:25;;;;;;;23.35;17.45;;;;;;;19.96;77.94;94541.81;4158665;28;20486;-67
2022/08/24 04:14:27;;;;;;;20.35;16.27;;;;;;;19.99;77.84;94543.22;4164124;28;20057;-68
2022/08/24 04:16:29;;;;;;;20.52;15.73;;;;;;;19.97;77.95;94540.78;4175336;28;20053;-68
2022/08/24 04:18:31;;;;;;;19.65;16.45;;;;;;;19.99;78.09;94535.25;4156629;28;20120;-68
2022/08/24 04:20:41;;;;;;;20.80;16.63;;;;;;;20.00;77.75;94545.66;4185133;28;20181;-67
2022/08/24 04:22:43;;;;;;;19.67;15.57;;;;;;;20.01;77.47;94546.47;4164173;28;20048;-68
2022/08/24 04:24:46;;;;;;;20.48;17.20;;;;;;;20.01;77.52;94541.97;4170083;28;20088;-67
2022/08/24 04:26:47;;;;;;;20.40;16.35;;;;;;;19.97;77.14;94540.78;4162243;28;20136;-67
2022/08/24 04:28:50;;;;;;;20.17;15.90;;;;;;;19.95;77.63;94542.84;4165877;28;20440;-66
2022/08/24 04:30:53;;;;;;;20.10;16.08;;;;;;;19.97;77.80;94542.63;4169809;28;20128;-67
2022/08/24 04:32:54;;;;;;;18.33;14.65;;;;;;;20.01;77.48;94539.31;4168161;28;20432;-65
2022/08/24 04:34:58;;;;;;;21.85;14.98;;;;;;;20.03;76.90;94541.75;4168069;28;20235;-66
2022/08/24 04:36:59;;;;;;;18.50;15.73;;;;;;;20.03;76.49;94544.41;4161027;28;20079;-68
2022/08/24 04:39:02;;;;;;;19.38;14.52;;;;;;;20.08;76.69;94549.06;4163129;28;20079;-66
2022/08/24 04:41:05;;;;;;;20.70;14.18;;;;;;;20.09;76.72;94548.84;4156826;28;20152;-67
2022/08/24 04:43:08;;;;;;;16.17;13.10;;;;;;;20.17;76.61;94556.50;4151966;28;20053;-67
2022/08/24 04:45:10;;;;;;;14.20;12.15;;;;;;;20.21;76.24;94552.38;4162512;28;20107;-67
2022/08/24 04:47:12;;;;;;;13.90;11.32;;;;;;;20.24;75.65;94556.44;4185075;28;20123;-68
2022/08/24 04:49:14;;;;;;;13.68;10.95;;;;;;;20.26;75.26;94559.69;4174110;28;20048;-67
2022/08/24 04:51:17;;;;;;;13.30;10.93;;;;;;;20.29;75.24;94558.44;4169062;28;20059;-66
2022/08/24 04:53:19;;;;;;;14.55;12.35;;;;;;;20.31;75.37;94557.19;4151126;28;20049;-68
2022/08/24 04:55:21;;;;;;;15.63;11.68;;;;;;;20.32;75.58;94552.66;4158686;28;20133;-67
2022/08/24 04:57:23;;;;;;;19.27;12.93;;;;;;;20.32;75.69;94553.47;4150336;28;20467;-66
2022/08/24 04:59:25;;;;;;;19.25;14.20;;;;;;;20.34;75.24;94547.94;4174552;28;20056;-68
2022/08/24 05:01:29;;;;;;;17.45;11.23;;;;;;;20.32;74.17;94548.16;4174092;28;20504;-67
2022/08/24 05:03:31;;;;;;;17.60;11.88;;;;;;;20.32;74.99;94552.66;4179779;28;20053;-67
2022/08/24 05:05:33;;;;;;;12.85;8.85;;;;;;;20.39;74.51;94551.56;4171816;28;20063;-68
2022/08/24 05:07:36;;;;;;;13.57;9.50;;;;;;;20.43;73.69;94544.75;4173547;28;20068;-66
2022/08/24 05:09:38;;;;;;;9.93;7.20;;;;;;;20.41;71.65;94552.16;4170892;28;20084;-67
2022/08/24 05:11:40;;;;;;;11.77;8.48;;;;;;;20.48;72.15;94549.41;4174677;28;20763;-66
2022/08/24 05:13:54;;;;;;;10.05;6.93;;;;;;;20.51;71.90;94550.81;4173536;28;20102;-68
2022/08/24 05:15:56;;;;;;;8.27;6.35;;;;;;;20.35;70.60;94549.53;4172667;28;20114;-67
2022/08/24 05:17:58;;;;;;;12.77;8.30;;;;;;;20.29;72.20;94543.28;4172915;28;20056;-66
2022/08/24 05:20:00;;;;;;;13.80;7.90;;;;;;;20.37;72.36;94547.47;4181219;28;20067;-67
2022/08/24 05:22:02;;;;;;;11.07;8.27;;;;;;;20.50;71.76;94549.16;4163034;28;20350;-67
2022/08/24 05:24:04;;;;;;;8.60;6.60;;;;;;;20.58;73.18;94539.06;4173261;28;20067;-67
2022/08/24 05:26:10;;;;;;;10.32;7.15;;;;;;;20.62;70.96;94539.41;4174091;28;20443;-67
2022/08/24 05:28:12;;;;;;;8.68;7.43;;;;;;;20.62;71.38;94542.88;4171994;28;20071;-66
2022/08/24 05:30:17;;;;;;;10.23;7.15;;;;;;;20.54;72.33;94545.03;4169746;28;20057;-66
2022/08/24 05:32:19;;;;;;;10.75;8.02;;;;;;;20.67;73.68;94539.53;4165136;28;20053;-68
2022/08/24 05:34:26;;;;;;;12.30;7.93;;;;;;;20.84;75.96;94537.91;4162162;28;20092;-67
2022/08/24 05:36:36;;;;;;;15.52;8.98;;;;;;;21.17;79.43;94536.59;4170687;28;20475;-68
2022/08/24 05:38:39;;;;;;;11.20;8.65;;;;;;;21.39;76.34;94539.50;4161641;28;20051;-67
2022/08/24 05:40:41;;;;;;;14.77;9.05;;;;;;;21.41;73.91;94537.47;4171053;28;20520;-66
2022/08/24 05:42:42;;;;;;;13.98;7.90;;;;;;;21.48;76.90;94529.34;4174532;28;20320;-65
2022/08/24 05:44:45;;;;;;;8.93;7.32;;;;;;;21.59;74.54;94533.88;4173661;28;20106;-66
2022/08/24 05:46:47;;;;;;;13.13;7.15;;;;;;;21.75;72.19;94536.91;4173077;28;20561;-68
2022/08/24 05:48:49;;;;;;;11.55;6.85;;;;;;;21.77;68.98;94535.63;4173927;28;20095;-70
2022/08/24 05:50:55;;;;;;;11.25;6.22;;;;;;;21.85;69.25;94539.78;4175742;28;20145;-68
2022/08/24 05:52:57;;;;;;;;;;;;;;;21.89;68.50;94536.41;4155025;28;20087;-66
2022/08/24 05:54:59;;;;;;;9.77;6.25;;;;;;;22.00;67.12;94531.31;4174170;28;20012;-67
2022/08/24 05:57:03;;;;;;;8.23;6.10;;;;;;;22.08;66.97;94529.09;4172213;28;20323;-67
2022/08/24 05:59:05;;;;;;;8.30;5.97;;;;;;;22.02;66.27;94530.03;4173402;28;20482;-67
2022/08/24 06:01:11;;;;;;;8.40;7.13;;;;;;;22.05;66.34;94536.78;4172319;28;20111;-67
2022/08/24 06:03:14;;;;;;;8.82;6.60;;;;;;;22.03;66.73;94533.53;4153085;28;20049;-66
2022/08/24 06:05:16;;;;;;;7.23;6.20;;;;;;;21.77;66.04;94532.97;4158960;28;20056;-66
2022/08/24 06:07:18;;;;;;;9.65;6.57;;;;;;;21.70;66.26;94536.78;4171039;28;20359;-66
2022/08/24 06:09:20;;;;;;;11.70;6.80;;;;;;;21.69;66.45;94530.63;4173704;28;20059;-68
2022/08/24 06:11:31;;;;;;;6.80;6.03;;;;;;;21.73;66.25;94531.81;4171157;28;20053;-67
2022/08/24 06:13:34;;;;;;;8.23;5.95;;;;;;;21.79;65.69;94530.03;4163490;28;20048;-66
2022/08/24 06:15:41;;;;;;;9.52;6.50;;;;;;;21.81;65.14;94539.47;4172157;28;20070;-67
2022/08/24 06:17:51;;;;;;;7.82;5.97;;;;;;;21.63;65.66;94535.03;4170259;28;20136;-68
2022/08/24 06:19:54;;;;;;;11.07;6.50;;;;;;;21.46;66.59;94542.09;4170971;28;20056;-70
2022/08/24 06:21:56;;;;;;;8.27;6.53;;;;;;;21.32;66.96;94536.16;4173429;28;20559;-67
2022/08/24 06:23:59;;;;;;;8.30;7.22;;;;;;;21.16;67.12;94537.63;4173935;28;20045;-69
2022/08/24 06:28:25;;;;;;;9.73;7.82;;;;;;;21.34;67.89;94542.06;4176577;28;20091;-68
2022/08/24 06:30:27;;;;;;;9.65;7.95;;;;;;;21.55;67.81;94537.22;4177277;28;20049;-69
2022/08/24 06:32:31;;;;;;;;;;;;;;;21.67;66.57;94538.88;4177573;28;20478;-68
2022/08/24 06:34:33;;;;;;;9.95;8.10;;;;;;;21.78;66.78;94539.91;4176860;28;20328;-68
2022/08/24 06:36:35;;;;;;;9.95;8.10;;;;;;;21.94;66.69;94534.91;4175644;28;20577;-68
2022/08/24 06:38:44;;;;;;;11.30;8.07;;;;;;;22.13;65.64;94546.25;4176938;28;20657;-71
2022/08/24 06:40:47;;;;;;;11.80;7.88;;;;;;;22.24;65.14;94537.44;4157066;28;20054;-70
2022/08/24 06:42:49;;;;;;;11.02;7.40;;;;;;;22.33;65.68;94538.72;4165647;28;20449;-85
2022/08/24 06:44:52;;;;;;;11.02;6.93;;;;;;;22.37;64.66;94537.19;4162879;28;20050;-79
2022/08/24 06:46:54;;;;;;;7.47;5.82;;;;;;;22.33;64.37;94540.53;4175799;28;20114;-78
2022/08/24 06:48:56;;;;;;;8.85;5.47;;;;;;;22.07;64.30;94545.34;4174655;28;20049;-69
2022/08/24 06:50:59;;;;;;;7.72;6.03;;;;;;;22.13;64.79;94543.59;4175441;28;20045;-70
2022/08/24 06:53:01;;;;;;;10.32;6.20;;;;;;;22.26;64.56;94549.53;4172575;28;20508;-72
2022/08/24 06:55:04;;;;;;;8.48;6.50;;;;;;;22.18;64.72;94551.72;4174864;28;20053;-69
2022/08/24 06:57:06;;;;;;;;;;;;;;;22.14;64.67;94545.22;4170451;28;20568;-71
2022/08/24 06:59:08;;;;;;;11.07;6.72;;;;;;;22.18;65.04;94551.72;4174174;28;20024;-69
2022/08/24 07:01:19;;;;;;;9.13;6.43;;;;;;;22.34;65.65;94544.84;4169298;28;20075;-69
2022/08/24 07:03:22;;;;;;;6.93;6.22;;;;;;;22.43;65.53;94554.91;4178234;28;20044;-75
2022/08/24 07:05:23;;;;;;;7.82;6.25;;;;;;;22.58;64.97;94561.59;4170352;28;20049;-70
2022/08/24 07:07:25;;;;;;;11.35;6.18;;;;;;;22.77;64.77;94563.03;4176700;28;20106;-74
2022/08/24 07:09:30;;;;;;;6.80;6.05;;;;;;;22.88;63.20;94558.72;4137285;28;20513;-71
2022/08/24 07:11:33;;;;;;;6.72;5.93;;;;;;;23.04;62.44;94565.19;4163765;28;20107;-70
2022/08/24 07:13:35;;;;;;;;;;;;;;;23.08;62.23;94561.78;4186747;28;20075;-71
2022/08/24 07:15:38;;;;;;;22.23;11.75;;;;;;;22.77;62.33;94563.03;4161129;28;19932;-71
2022/08/24 07:17:43;;;;;;;6.97;5.45;;;;;;;22.60;61.59;94559.50;4164887;28;20403;-69
2022/08/24 07:19:45;;;;;;;10.15;5.50;;;;;;;22.24;62.24;94562.28;4161983;28;20057;-70
2022/08/24 07:21:47;;;;;;;6.43;5.40;;;;;;;22.03;63.58;94566.34;4174849;28;20113;-70
2022/08/24 07:23:53;;;;;;;8.25;4.60;;;;;;;22.07;62.73;94569.34;4172350;28;20123;-70
2022/08/24 07:25:54;;;;;;;6.63;4.95;;;;;;;21.95;62.95;94574.69;4161293;28;20057;-71
2022/08/24 07:27:59;;;;;;;6.60;5.10;;;;;;;21.85;63.36;94577.94;4174614;28;20056;-68
2022/08/24 07:30:01;;;;;;;6.35;5.00;;;;;;;21.94;63.35;94580.25;4163573;28;20053;-68
2022/08/24 07:32:23;;;;;;;9.82;5.80;;;;;;;22.08;63.30;94574.44;4173123;28;20056;-69
2022/08/24 07:34:25;;;;;;;8.18;5.15;;;;;;;22.22;63.02;94569.72;4158737;28;20428;-70
2022/08/24 07:36:28;;;;;;;10.52;5.60;;;;;;;22.52;63.17;94582.06;4175599;28;20053;-69
2022/08/24 07:38:29;;;;;;;19.20;8.63;;;;;;;22.52;62.32;94575.91;4164611;28;20046;-69
2022/08/24 07:40:33;;;;;;;13.15;7.82;;;;;;;22.37;61.45;94577.22;4173724;28;20467;-69
2022/08/24 07:42:56;;;;;;;14.43;8.43;;;;;;;22.21;61.85;94562.69;4170641;28;20079;-68
2022/08/24 07:44:59;;;;;;;8.02;5.63;;;;;;;21.98;62.73;94566.19;4151837;28;20058;-70
2022/08/24 07:47:01;;;;;;;6.95;5.80;;;;;;;22.17;62.55;94566.88;4174478;28;20320;-69
2022/08/24 07:49:22;;;;;;;14.38;6.07;;;;;;;22.28;63.19;94575.94;4162644;28;20147;-69
2022/08/24 07:51:40;;;;;;;6.55;5.07;;;;;;;22.07;62.57;94559.50;4163501;28;20111;-69
2022/08/24 07:53:47;;;;;;;8.45;6.22;;;;;;;21.60;64.01;94561.38;4148096;28;20281;-70
2022/08/24 07:55:55;;;;;;;7.65;5.50;;;;;;;21.93;63.37;94558.09;4171432;28;20489;-69
2022/08/24 07:57:58;;;;;;;6.55;5.30;;;;;;;21.98;63.04;94555.53;4169593;28;20049;-69
2022/08/24 08:00:02;;;;;;;7.82;6.15;;;;;;;22.14;62.74;94554.03;4174572;28;20053;-68
2022/08/24 08:02:07;;;;;;;9.02;6.13;;;;;;;22.28;62.77;94560.78;4175623;28;20564;-68
2022/08/24 08:04:09;;;;;;;7.18;5.35;;;;;;;22.45;62.34;94560.03;4157065;28;20057;-70
2022/08/24 08:06:10;;;;;;;9.93;5.72;;;;;;;22.72;62.10;94559.50;4157085;28;20053;-70
2022/08/24 08:08:19;;;;;;;7.95;5.72;;;;;;;22.87;62.41;94552.56;4165769;28;20118;-70
2022/08/24 08:10:22;;;;;;;7.38;5.90;;;;;;;23.16;61.84;94554.44;4161876;28;20451;-69
2022/08/24 08:12:24;;;;;;;8.60;5.40;;;;;;;23.39;61.11;94551.63;4157286;28;20048;-69
2022/08/24 08:14:26;;;;;;;9.98;5.05;;;;;;;23.60;59.81;94549.28;4167070;28;20106;-69
2022/08/24 08:16:28;;;;;;;7.68;5.50;;;;;;;23.66;58.84;94543.75;4177811;28;20059;-70
2022/08/24 08:18:31;;;;;;;9.77;5.68;;;;;;;23.59;58.87;94545.78;4172283;28;20115;-69
2022/08/24 08:20:33;;;;;;;10.55;5.72;;;;;;;23.38;59.50;94542.00;4143992;28;20049;-70
2022/08/24 08:24:55;;;;;;;6.35;5.40;;;;;;;22.92;60.70;94543.03;4174996;28;20110;-71
2022/08/24 08:26:58;;;;;;;10.30;6.28;;;;;;;22.97;61.29;94548.44;4174020;28;20056;-70
2022/08/24 08:29:00;;;;;;;9.30;6.23;;;;;;;23.17;60.81;94545.38;4176093;28;20140;-69
2022/08/24 08:31:04;;;;;;;7.00;5.40;;;;;;;23.37;60.14;94540.34;4173806;28;20502;-69
2022/08/24 08:33:07;;;;;;;7.03;5.63;;;;;;;23.61;59.83;94545.53;4160537;28;20253;-69
2022/08/24 08:35:09;;;;;;;7.35;5.40;;;;;;;23.83;59.51;94541.09;4160558;28;20049;-70
2022/08/24 08:37:12;;;;;;;8.43;5.22;;;;;;;23.94;59.38;94538.56;4169737;28;20056;-69
2022/08/24 08:39:15;;;;;;;7.25;5.35;;;;;;;24.05;58.72;94541.13;4145832;28;20050;-69
2022/08/24 08:41:17;;;;;;;7.70;5.43;;;;;;;23.85;57.76;94535.50;4157673;28;20457;-71
2022/08/24 08:43:54;;;;;;;5.97;4.43;;;;;;;23.84;58.06;94534.69;4166046;28;20520;-69
2022/08/24 08:46:11;;;;;;;9.35;4.80;;;;;;;23.60;58.47;94534.03;4163743;28;20052;-70
2022/08/24 08:48:42;;;;;;;7.28;4.78;;;;;;;23.35;58.86;94536.31;4168266;28;20056;-71
2022/08/24 08:50:51;;;;;;;7.50;5.20;;;;;;;23.56;59.57;94537.44;4145478;28;20351;-70
2022/08/24 08:53:05;;;;;;;8.13;5.43;;;;;;;23.60;58.93;94535.91;4156301;28;20551;-69
2022/08/24 08:55:37;;;;;;;7.78;5.55;;;;;;;23.60;59.00;94536.72;4168804;28;20399;-70
2022/08/24 08:58:22;;;;;;;9.32;5.70;;;;;;;23.78;58.03;94533.00;4151022;28;20092;-70
2022/08/24 09:01:04;;;;;;;10.57;5.22;;;;;;;23.89;58.35;94541.97;4144015;28;20251;-70
2022/08/24 09:03:33;;;;;;;6.57;5.22;;;;;;;24.19;57.95;94536.22;4127479;28;20207;-69
2022/08/24 09:05:57;;;;;;;7.15;5.28;;;;;;;24.28;56.49;94549.97;4172621;28;20053;-70
2022/08/24 09:08:34;;;;;;;5.10;3.70;;;;;;;24.16;56.05;94542.09;4154819;28;20125;-71
2022/08/24 09:10:43;;;;;;;7.50;4.30;;;;;;;24.23;55.75;94541.91;4154439;28;20065;-70
2022/08/24 09:13:10;;;;;;;6.18;4.25;;;;;;;24.45;56.38;94534.66;4172112;28;20048;-69
2022/08/24 09:15:43;;;;;;;6.78;4.50;;;;;;;24.40;55.35;94537.28;4159132;28;20128;-69
2022/08/24 09:18:08;;;;;;;5.78;4.13;;;;;;;24.49;55.14;94541.19;4168700;28;20053;-70
2022/08/24 09:20:32;;;;;;;11.13;5.38;;;;;;;24.81;54.88;94543.16;4174155;28;20538;-70
2022/08/24 09:22:38;;;;;;;17.55;11.50;;;;;;;25.08;54.34;94540.47;4169494;28;20056;-68
2022/08/24 09:25:15;;;;;;;34.63;21.23;;;;;;;25.39;53.27;94546.16;4154164;28;20049;-69
2022/08/24 09:27:24;;;;;;;27.15;16.88;;;;;;;25.53;52.73;94536.63;4131756;28;20171;-70
2022/08/24 09:30:17;;;;;;;13.00;9.40;;;;;;;25.86;52.62;94525.84;4164409;28;20585;-70
2022/08/24 09:32:44;;;;;;;14.90;10.02;;;;;;;26.03;52.69;94534.56;4146245;28;20568;-68
2022/08/24 09:35:08;;;;;;;7.82;4.68;;;;;;;26.22;52.31;94529.56;4174306;28;20327;-70
2022/08/24 09:37:31;;;;;;;7.07;4.65;;;;;;;26.33;52.28;94525.84;4170398;28;20122;-69
2022/08/24 09:40:11;;;;;;;7.95;4.30;;;;;;;26.48;51.09;94521.59;4169451;28;20480;-70
2022/08/24 09:42:19;;;;;;;7.57;4.10;;;;;;;26.50;51.23;94522.97;4141286;28;20085;-69
2022/08/24 09:44:24;;;;;;;9.07;4.55;;;;;;;26.52;49.17;94528.06;4169113;28;20072;-70
2022/08/24 09:46:58;;;;;;;7.10;4.40;;;;;;;26.58;49.57;94523.56;4168389;28;20053;-70
2022/08/24 09:49:27;;;;;;;6.95;4.07;;;;;;;26.71;49.47;94520.38;4162821;28;20130;-69
2022/08/24 09:51:59;;;;;;;8.65;4.30;;;;;;;26.71;48.62;94513.13;4156690;28;20049;-69
2022/08/24 09:54:16;;;;;;;5.22;4.05;;;;;;;26.80;47.77;94512.59;4172225;28;20061;-70
2022/08/24 09:56:27;;;;;;;7.57;4.50;;;;;;;26.69;47.46;94504.50;4171995;28;20107;-69